createdAt,value
2023-01-06T00:01:24.715Z,95377
2023-01-06T00:04:50.041Z,95369
2023-01-06T00:08:15.231Z,95365
2023-01-06T00:11:40.448Z,95363
2023-01-06T00:15:05.715Z,95360
2023-01-06T00:18:30.922Z,95348
2023-01-06T00:21:56.172Z,95340
2023-01-06T00:25:21.385Z,95332
2023-01-06T00:28:46.627Z,95338
2023-01-06T00:32:11.989Z,95332
2023-01-06T00:35:37.091Z,95334
2023-01-06T00:39:02.340Z,95336
2023-01-06T00:42:27.570Z,95337
2023-01-06T00:45:52.794Z,95336
2023-01-06T00:49:18.185Z,95331
2023-01-06T00:52:43.286Z,95335
2023-01-06T00:56:08.526Z,95340
2023-01-06T00:59:33.759Z,95343
2023-01-06T01:02:59.119Z,95342
2023-01-06T01:06:24.462Z,95343
2023-01-06T01:09:49.540Z,95342
2023-01-06T01:13:14.799Z,95348
2023-01-06T01:16:40.061Z,95338
2023-01-06T01:20:05.275Z,95337
2023-01-06T01:23:30.643Z,95339
2023-01-06T01:26:55.754Z,95340
2023-01-06T01:30:20.993Z,95343
2023-01-06T01:33:46.241Z,95340
2023-01-06T01:37:11.474Z,95344
2023-01-06T01:40:36.838Z,95336
2023-01-06T01:44:01.950Z,95328
2023-01-06T01:47:27.190Z,95333
2023-01-06T01:50:52.432Z,95335
2023-01-06T01:54:17.677Z,95326
2023-01-06T01:57:43.048Z,95323
2023-01-06T02:01:08.262Z,95311
2023-01-06T02:04:33.408Z,95311
2023-01-06T02:07:58.642Z,95308
2023-01-06T02:11:23.888Z,95306
2023-01-06T02:14:49.245Z,95307
2023-01-06T02:18:14.348Z,95311
2023-01-06T02:21:39.589Z,95311
2023-01-06T02:25:04.813Z,95307
2023-01-06T02:28:30.071Z,95308
2023-01-06T02:31:55.425Z,95306
2023-01-06T02:35:20.537Z,95306
2023-01-06T02:38:45.790Z,95289
2023-01-06T02:42:11.027Z,95292
2023-01-06T02:45:36.268Z,95292
2023-01-06T02:49:01.624Z,95288
2023-01-06T02:52:26.738Z,95294
2023-01-06T02:55:51.989Z,95284
2023-01-06T02:59:17.187Z,95277
2023-01-06T03:02:42.461Z,95275
2023-01-06T03:06:07.875Z,95276
2023-01-06T03:09:32.946Z,95274
2023-01-06T03:12:58.206Z,95276
2023-01-06T03:16:23.477Z,95271
2023-01-06T03:19:48.667Z,95264
2023-01-06T03:23:14.013Z,95252
2023-01-06T03:26:39.133Z,95257
2023-01-06T03:30:04.362Z,95258
2023-01-06T03:33:29.616Z,95256
2023-01-06T03:36:54.863Z,95254
2023-01-06T03:40:20.231Z,95249
2023-01-06T03:43:45.354Z,95256
2023-01-06T03:47:10.612Z,95255
2023-01-06T03:50:35.838Z,95255
2023-01-06T03:54:01.062Z,95244
2023-01-06T03:57:26.424Z,95248
2023-01-06T04:00:51.593Z,95248
2023-01-06T04:04:16.802Z,95253
2023-01-06T04:07:42.084Z,95243
2023-01-06T04:11:07.304Z,95248
2023-01-06T04:14:32.668Z,95250
2023-01-06T04:17:57.784Z,95244
2023-01-06T04:21:23.035Z,95238
2023-01-06T04:24:48.270Z,95244
2023-01-06T04:28:13.503Z,95243
2023-01-06T04:31:38.920Z,95242
2023-01-06T04:35:04.006Z,95239
2023-01-06T04:38:29.245Z,95225
2023-01-06T04:41:54.530Z,95227
2023-01-06T04:45:19.746Z,95226
2023-01-06T04:48:45.154Z,95217
2023-01-06T04:52:10.288Z,95213
2023-01-06T04:55:35.538Z,95211
2023-01-06T04:59:00.802Z,95205
2023-01-06T05:02:26.074Z,95205
2023-01-06T05:05:51.480Z,95205
2023-01-06T05:09:16.639Z,95208
2023-01-06T05:12:41.906Z,95201
2023-01-06T05:16:07.201Z,95205
2023-01-06T05:19:32.414Z,95206
2023-01-06T05:22:57.734Z,95200
2023-01-06T05:26:23.115Z,95197
2023-01-06T05:29:48.369Z,95197
2023-01-06T05:33:13.614Z,95192
2023-01-06T05:36:38.849Z,95197
2023-01-06T05:40:04.238Z,95187
2023-01-06T05:43:29.380Z,95192
2023-01-06T05:46:54.654Z,95188
2023-01-06T05:50:19.934Z,95190
2023-01-06T05:53:45.205Z,95184
2023-01-06T05:57:10.586Z,95185
2023-01-06T06:00:35.733Z,95167
2023-01-06T06:04:01.092Z,95166
2023-01-06T06:07:26.297Z,95170
2023-01-06T06:10:51.571Z,95165
2023-01-06T06:14:17.314Z,95166
2023-01-06T06:17:42.086Z,95152
2023-01-06T06:21:07.354Z,95158
2023-01-06T06:24:32.660Z,95159
2023-01-06T06:27:57.928Z,95162
2023-01-06T06:31:23.397Z,95168
2023-01-06T06:34:48.519Z,95173
2023-01-06T06:38:13.707Z,95169
2023-01-06T06:41:38.943Z,95174
2023-01-06T06:45:04.170Z,95168
2023-01-06T06:48:29.545Z,95157
2023-01-06T06:51:55.543Z,95160
2023-01-06T06:55:20.040Z,95150
2023-01-06T06:58:45.316Z,95140
2023-01-06T07:02:10.712Z,95134
2023-01-06T07:05:35.930Z,95134
2023-01-06T07:09:01.042Z,95145
2023-01-06T07:12:26.299Z,95137
2023-01-06T07:15:51.728Z,95155
2023-01-06T07:19:16.915Z,95154
2023-01-06T07:22:42.309Z,95177
2023-01-06T07:26:07.424Z,95169
2023-01-06T07:29:32.666Z,95179
2023-01-06T07:32:57.898Z,95164
2023-01-06T07:36:23.143Z,95162
2023-01-06T07:39:48.440Z,95155
2023-01-06T07:43:13.669Z,95152
2023-01-06T07:46:38.927Z,95152
2023-01-06T07:50:04.175Z,95148
2023-01-06T07:53:29.413Z,95152
2023-01-06T07:56:54.792Z,95148
2023-01-06T08:00:19.902Z,95160
2023-01-06T08:03:45.114Z,95156
2023-01-06T08:07:10.306Z,95145
2023-01-06T08:10:35.530Z,95147
2023-01-06T08:14:00.863Z,95132
2023-01-06T08:17:25.948Z,95132
2023-01-06T08:20:51.153Z,95130
2023-01-06T08:24:16.367Z,95133
2023-01-06T08:27:41.590Z,95143
2023-01-06T08:31:06.973Z,95141
2023-01-06T08:34:32.001Z,95141
2023-01-06T08:37:57.221Z,95149
2023-01-06T08:41:22.428Z,95149
2023-01-06T08:44:47.640Z,95156
2023-01-06T08:48:13.016Z,95141
2023-01-06T08:51:38.093Z,95147
2023-01-06T08:55:03.289Z,95152
2023-01-06T08:58:28.493Z,95147
2023-01-06T09:01:53.868Z,95150
2023-01-06T09:05:19.152Z,95159
2023-01-06T09:08:44.166Z,95163
2023-01-06T09:12:09.398Z,95159
2023-01-06T09:15:34.590Z,95156
2023-01-06T09:18:59.837Z,95168
2023-01-06T09:22:25.192Z,95176
2023-01-06T09:25:50.287Z,95169
2023-01-06T09:29:15.511Z,95177
2023-01-06T09:32:40.723Z,95168
2023-01-06T09:36:05.948Z,95167
2023-01-06T09:39:31.346Z,95174
2023-01-06T09:42:56.458Z,95173
2023-01-06T09:46:21.735Z,95176
2023-01-06T09:49:46.891Z,95179
2023-01-06T09:53:12.128Z,95167
2023-01-06T09:56:37.430Z,95176
2023-01-06T10:00:02.532Z,95174
2023-01-06T10:03:27.776Z,95170
2023-01-06T10:06:53.020Z,95181
2023-01-06T10:10:18.206Z,95178
2023-01-06T10:13:43.542Z,95168
2023-01-06T10:17:08.684Z,95162
2023-01-06T10:20:33.895Z,95160
2023-01-06T10:23:59.130Z,95166
2023-01-06T10:27:24.351Z,95163
2023-01-06T10:30:49.697Z,95153
2023-01-06T10:34:14.810Z,95179
2023-01-06T10:37:40.156Z,95167
2023-01-06T10:41:05.364Z,95171
2023-01-06T10:44:30.616Z,95166
2023-01-06T10:47:56.009Z,95168
2023-01-06T10:51:21.081Z,95173
2023-01-06T10:54:46.296Z,95166
2023-01-06T10:58:11.528Z,95167
2023-01-06T11:01:37.007Z,95173
2023-01-06T11:05:02.121Z,95175
2023-01-06T11:08:27.203Z,95188
2023-01-06T11:11:52.418Z,95199
2023-01-06T11:15:17.620Z,95181
2023-01-06T11:18:42.934Z,95173
2023-01-06T11:22:08.166Z,95178
2023-01-06T11:25:33.252Z,95191
2023-01-06T11:28:58.482Z,95188
2023-01-06T11:32:23.715Z,95185
2023-01-06T11:35:48.924Z,95188
2023-01-06T11:39:14.287Z,95187
2023-01-06T11:42:39.416Z,95184
2023-01-06T11:46:04.735Z,95182
2023-01-06T11:49:29.873Z,95174
2023-01-06T11:52:55.156Z,95180
2023-01-06T11:56:20.605Z,95183
2023-01-06T11:59:45.769Z,95171
2023-01-06T12:03:11.200Z,95176
2023-01-06T12:06:36.377Z,95168
2023-01-06T12:10:01.625Z,95159
2023-01-06T12:13:27.038Z,95153
2023-01-06T12:16:52.344Z,95150
2023-01-06T12:20:18.275Z,95160
2023-01-06T12:23:43.551Z,95159
2023-01-06T12:27:09.527Z,95143
2023-01-06T12:30:34.983Z,95143
2023-01-06T12:34:00.108Z,95154
2023-01-06T12:37:25.370Z,95158
2023-01-06T12:40:50.667Z,95160
2023-01-06T12:44:15.907Z,95168
2023-01-06T12:47:41.375Z,95175
2023-01-06T12:51:06.838Z,95173
2023-01-06T12:54:32.117Z,95175
2023-01-06T12:57:57.405Z,95180
2023-01-06T13:01:22.872Z,95180
2023-01-06T13:04:48.050Z,95178
2023-01-06T13:08:13.166Z,95178
2023-01-06T13:11:38.467Z,95177
2023-01-06T13:15:03.757Z,95177
2023-01-06T13:18:29.055Z,95178
2023-01-06T13:21:55.384Z,95171
2023-01-06T13:25:19.650Z,95171
2023-01-06T13:28:44.928Z,95169
2023-01-06T13:32:10.219Z,95166
2023-01-06T13:35:35.459Z,95168
2023-01-06T13:39:00.894Z,95167
2023-01-06T13:42:26.064Z,95172
2023-01-06T13:45:51.398Z,95167
2023-01-06T13:49:16.622Z,95162
2023-01-06T13:52:41.903Z,95166
2023-01-06T13:56:07.285Z,95172
2023-01-06T13:59:32.476Z,95178
2023-01-06T14:02:57.771Z,95180
2023-01-06T14:06:23.015Z,95176
2023-01-06T14:09:48.352Z,95178
2023-01-06T14:13:13.740Z,95182
2023-01-06T14:16:39.394Z,95182
2023-01-06T14:20:04.770Z,95179
2023-01-06T14:23:30.360Z,95188
2023-01-06T14:26:55.951Z,95181
2023-01-06T14:30:21.339Z,95197
2023-01-06T15:06:20.810Z,95227
2023-01-06T15:09:45.948Z,95235
2023-01-06T15:13:11.295Z,95236
2023-01-06T15:16:36.565Z,95235
2023-01-06T15:20:01.897Z,95241
2023-01-06T15:23:27.290Z,95248
2023-01-06T15:26:52.448Z,95247
2023-01-06T15:30:17.698Z,95254
2023-01-06T15:33:43.030Z,95256
2023-01-06T15:37:08.279Z,95263
2023-01-06T15:40:33.635Z,95264
2023-01-06T15:43:58.980Z,95267
2023-01-06T15:47:24.241Z,95262
2023-01-06T15:50:50.848Z,95273
2023-01-06T15:54:14.760Z,95265
2023-01-06T15:57:40.124Z,95274
2023-01-06T16:01:05.365Z,95269
2023-01-06T16:04:30.542Z,95271
2023-01-06T16:07:55.768Z,95268
2023-01-06T16:11:21.015Z,95265
2023-01-06T16:14:46.394Z,95272
2023-01-06T16:18:11.509Z,95278
2023-01-06T16:21:36.743Z,95269
2023-01-06T16:25:02.146Z,95267
2023-01-06T16:28:27.389Z,95267
2023-01-06T16:31:52.726Z,95260
2023-01-06T16:35:17.831Z,95272
2023-01-06T16:38:43.138Z,95268
2023-01-06T16:42:08.395Z,95269
2023-01-06T16:45:33.683Z,95272
2023-01-06T16:48:59.034Z,95268
2023-01-06T16:52:25.546Z,95274
2023-01-06T16:56:01.720Z,95281
2023-01-06T16:59:27.003Z,95273
2023-01-06T17:02:52.236Z,95274
2023-01-06T17:06:17.748Z,95275
2023-01-06T17:09:51.971Z,95280
2023-01-06T17:13:17.236Z,95276
2023-01-06T17:16:42.453Z,95283
2023-01-06T17:20:07.686Z,95280
2023-01-06T17:23:33.095Z,95282
2023-01-06T17:26:58.184Z,95288
2023-01-06T17:30:23.431Z,95284
2023-01-06T17:33:48.672Z,95288
2023-01-06T17:37:13.909Z,95295
2023-01-06T17:40:39.281Z,95295
2023-01-06T17:44:04.393Z,95296
2023-01-06T17:47:29.692Z,95299
2023-01-06T17:50:54.940Z,95300
2023-01-06T17:54:20.175Z,95298
2023-01-06T17:57:47.254Z,95299
2023-01-06T18:01:10.841Z,95306
2023-01-06T18:04:35.977Z,95300
2023-01-06T18:08:01.133Z,95304
2023-01-06T18:11:26.359Z,95305
2023-01-06T18:14:51.744Z,95307
2023-01-06T18:18:16.858Z,95310
2023-01-06T18:21:42.099Z,95312
2023-01-06T18:25:07.344Z,95311
2023-01-06T18:28:32.602Z,95307
2023-01-06T18:31:57.990Z,95308
2023-01-06T18:35:23.062Z,95307
2023-01-06T18:38:48.336Z,95307
2023-01-06T18:42:13.577Z,95300
2023-01-06T18:45:38.884Z,95300
2023-01-06T18:49:04.150Z,95308
2023-01-06T18:52:29.343Z,95310
2023-01-06T18:55:54.610Z,95313
2023-01-06T18:59:19.855Z,95325
2023-01-06T19:02:45.085Z,95325
2023-01-06T19:06:10.436Z,95330
2023-01-06T19:09:35.585Z,95338
2023-01-06T19:13:00.825Z,95335
2023-01-06T19:16:26.150Z,95331
2023-01-06T19:19:51.325Z,95329
2023-01-06T19:23:16.688Z,95334
2023-01-06T19:26:41.811Z,95337
2023-01-06T19:30:07.064Z,95333
2023-01-06T19:33:34.345Z,95335
2023-01-06T19:36:57.573Z,95330
2023-01-06T19:40:22.934Z,95331
2023-01-06T19:43:48.068Z,95331
2023-01-06T19:47:13.308Z,95331
2023-01-06T19:50:38.557Z,95322
2023-01-06T19:54:03.801Z,95331
2023-01-06T19:57:29.173Z,95331
2023-01-06T20:00:54.364Z,95338
2023-01-06T20:04:19.541Z,95328
2023-01-06T20:07:44.777Z,95326
2023-01-06T20:11:10.032Z,95331
2023-01-06T20:14:35.428Z,95330
2023-01-06T20:18:00.571Z,95325
2023-01-06T20:21:25.808Z,95335
2023-01-06T20:24:51.043Z,95334
2023-01-06T20:28:16.293Z,95329
2023-01-06T20:31:41.689Z,95329
2023-01-06T20:35:06.810Z,95335
2023-01-06T20:38:32.045Z,95328
2023-01-06T20:41:57.303Z,95331
2023-01-06T20:45:22.571Z,95341
2023-01-06T20:48:47.986Z,95342
2023-01-06T20:52:13.043Z,95351
2023-01-06T20:55:38.300Z,95351
2023-01-06T20:59:03.578Z,95350
2023-01-06T21:02:28.894Z,95345
2023-01-06T21:05:54.185Z,95346
2023-01-06T21:09:19.347Z,95342
2023-01-06T21:12:44.578Z,95339
2023-01-06T21:16:09.836Z,95349
2023-01-06T21:19:35.076Z,95349
2023-01-06T21:23:00.439Z,95344
2023-01-06T21:26:25.624Z,95338
2023-01-06T21:29:50.910Z,95337
2023-01-06T21:33:16.140Z,95337
2023-01-06T21:36:41.395Z,95341
2023-01-06T21:40:06.755Z,95341
2023-01-06T21:43:31.893Z,95338
2023-01-06T21:46:57.120Z,95337
2023-01-06T21:50:22.393Z,95333
2023-01-06T21:53:47.676Z,95339
2023-01-06T21:57:12.988Z,95334
2023-01-06T22:00:38.230Z,95341
2023-01-06T22:04:03.555Z,95342
2023-01-06T22:07:28.801Z,95341
2023-01-06T22:10:54.053Z,95347
2023-01-06T22:14:19.450Z,95350
2023-01-06T22:17:44.617Z,95347
2023-01-06T22:21:09.855Z,95347
2023-01-06T22:24:35.159Z,95344
2023-01-06T22:28:00.410Z,95345
2023-01-06T22:31:25.808Z,95336
2023-01-06T22:34:50.936Z,95340
2023-01-06T22:38:16.200Z,95342
2023-01-06T22:41:41.453Z,95342
2023-01-06T22:45:06.730Z,95341
2023-01-06T22:48:32.166Z,95344
2023-01-06T22:51:57.273Z,95347
2023-01-06T22:55:22.529Z,95351
2023-01-06T22:58:47.800Z,95355
2023-01-06T23:02:13.917Z,95358
2023-01-06T23:05:38.431Z,95351
2023-01-06T23:09:03.550Z,95359
2023-01-06T23:12:28.833Z,95364
2023-01-06T23:15:54.138Z,95368
2023-01-06T23:19:19.363Z,95366
2023-01-06T23:22:44.768Z,95357
2023-01-06T23:26:09.877Z,95358
2023-01-06T23:29:35.178Z,95360
2023-01-06T23:33:00.496Z,95361
2023-01-06T23:36:25.721Z,95352
2023-01-06T23:39:51.125Z,95347
2023-01-06T23:43:16.272Z,95339
2023-01-06T23:46:41.707Z,95337
2023-01-06T23:50:06.847Z,95343
2023-01-06T23:53:32.122Z,95334
2023-01-06T23:56:57.518Z,95322
